createdAt,value
2023-11-01T00:02:25.746Z,18.7
2023-11-01T00:08:32.087Z,18.6
2023-11-01T00:14:37.148Z,18.6
2023-11-01T00:20:42.641Z,18.6
2023-11-01T00:26:48.177Z,18.6
2023-11-01T00:32:53.457Z,18.6
2023-11-01T00:38:59.743Z,18.5
2023-11-01T00:45:05.517Z,18.5
2023-11-01T00:51:11.550Z,18.5
2023-11-01T00:57:16.871Z,18.5
2023-11-01T01:03:22.570Z,18.5
2023-11-01T01:09:28.421Z,18.5
2023-11-01T01:15:34.215Z,18.5
2023-11-01T01:21:39.628Z,18.5
2023-11-01T01:27:45.333Z,18.5
2023-11-01T01:33:50.348Z,18.5
2023-11-01T01:39:55.882Z,18.4
2023-11-01T01:46:01.697Z,18.4
2023-11-01T01:52:07.279Z,18.4
2023-11-01T01:58:13.200Z,18.4
2023-11-01T02:04:19.411Z,18.4
2023-11-01T02:10:24.978Z,18.4
2023-11-01T02:16:30.744Z,18.4
2023-11-01T02:22:36.521Z,18.4
2023-11-01T02:28:42.143Z,18.4
2023-11-01T02:34:47.259Z,18.4
2023-11-01T02:40:53.252Z,18.3
2023-11-01T02:46:58.677Z,18.3
2023-11-01T02:53:04.227Z,18.3
2023-11-01T02:59:10.289Z,18.3
2023-11-01T03:05:16.177Z,18.3
2023-11-01T03:11:21.419Z,18.3
2023-11-01T03:17:27.572Z,18.3
2023-11-01T03:23:32.585Z,18.3
2023-11-01T03:29:38.459Z,18.2
2023-11-01T03:35:44.094Z,18.2
2023-11-01T03:41:49.644Z,18.2
2023-11-01T03:47:55.390Z,18.2
2023-11-01T03:54:00.949Z,18.2
2023-11-01T04:00:05.762Z,18.2
2023-11-01T04:06:11.693Z,18.2
2023-11-01T04:12:17.097Z,18.2
2023-11-01T04:18:22.930Z,18.5
2023-11-01T04:24:30.341Z,18.1
2023-11-01T04:30:36.022Z,18.1
2023-11-01T04:36:41.818Z,18
2023-11-01T04:42:47.427Z,18
2023-11-01T04:48:53.000Z,18
2023-11-01T04:54:58.376Z,18
2023-11-01T05:01:03.897Z,18
2023-11-01T05:07:09.325Z,18
2023-11-01T05:13:14.882Z,18
2023-11-01T05:19:20.696Z,18
2023-11-01T05:25:27.811Z,18
2023-11-01T05:31:34.885Z,18
2023-11-01T05:37:40.601Z,18
2023-11-01T05:43:46.233Z,18
2023-11-01T05:49:51.432Z,18
2023-11-01T05:55:59.824Z,17.9
2023-11-01T06:02:13.838Z,18
2023-11-01T06:08:19.567Z,18
2023-11-01T06:14:24.561Z,18
2023-11-01T06:20:29.957Z,18
2023-11-01T06:26:35.476Z,18
2023-11-01T06:32:41.332Z,18
2023-11-01T06:38:47.207Z,18
2023-11-01T06:44:52.804Z,18
2023-11-01T06:50:58.206Z,18
2023-11-01T06:57:03.645Z,18
2023-11-01T07:03:11.831Z,18
2023-11-01T07:09:18.566Z,18
2023-11-01T07:15:23.378Z,17.9
2023-11-01T07:21:29.080Z,18
2023-11-01T07:27:34.300Z,17.9
2023-11-01T07:33:40.273Z,17.9
2023-11-01T07:39:45.645Z,18
2023-11-01T07:45:51.061Z,18
2023-11-01T07:51:57.010Z,18
2023-11-01T07:58:02.514Z,18
2023-11-01T08:04:07.754Z,18
2023-11-01T08:10:13.727Z,18
2023-11-01T08:16:18.832Z,18.6
2023-11-01T08:22:24.812Z,18.2
2023-11-01T08:28:30.782Z,18.2
2023-11-01T08:34:36.194Z,18.2
2023-11-01T08:40:41.596Z,18.2
2023-11-01T08:46:47.331Z,18.2
2023-11-01T08:52:53.091Z,18.2
2023-11-01T08:58:59.275Z,18.2
2023-11-01T09:05:05.131Z,18.2
2023-11-01T09:11:11.448Z,18.2
2023-11-01T09:17:17.836Z,18.2
2023-11-01T09:23:23.640Z,18.2
2023-11-01T09:29:29.631Z,18.3
2023-11-01T09:35:35.515Z,18.3
2023-11-01T09:41:41.262Z,18.3
2023-11-01T09:47:46.763Z,18.3
2023-11-01T09:53:52.355Z,18.3
2023-11-01T09:59:58.942Z,18.3
2023-11-01T10:06:05.528Z,18.3
2023-11-01T10:12:12.324Z,18.4
2023-11-01T10:18:17.913Z,18.4
2023-11-01T10:24:25.898Z,18.4
2023-11-01T10:30:32.303Z,18.4
2023-11-01T10:36:38.073Z,18.4
2023-11-01T10:42:43.730Z,18.5
2023-11-01T10:48:49.126Z,18.5
2023-11-01T10:54:55.049Z,18.5
2023-11-01T11:01:00.585Z,18.5
2023-11-01T11:07:12.609Z,18.5
2023-11-01T11:13:27.361Z,18.5
2023-11-01T11:19:32.865Z,18.5
2023-11-01T11:25:37.893Z,18.5
2023-11-01T11:31:43.611Z,18.5
2023-11-01T11:37:49.177Z,18.5
2023-11-01T11:43:54.558Z,18.6
2023-11-01T11:50:00.341Z,18.7
2023-11-01T11:56:06.122Z,18.7
2023-11-01T12:02:11.938Z,18.7
2023-11-01T12:08:17.268Z,18.8
2023-11-01T12:14:22.484Z,18.8
2023-11-01T12:20:27.672Z,18.8
2023-11-01T12:26:33.402Z,18.8
2023-11-01T12:32:38.816Z,18.8
2023-11-01T12:38:44.568Z,18.8
2023-11-01T12:44:50.197Z,18.9
2023-11-01T12:50:55.492Z,18.9
2023-11-01T12:57:00.888Z,18.9
2023-11-01T13:03:06.468Z,18.9
2023-11-01T13:09:11.830Z,18.9
2023-11-01T13:15:17.438Z,18.9
2023-11-01T13:21:23.538Z,18.9
2023-11-01T13:27:29.165Z,18.9
2023-11-01T13:33:34.922Z,18.9
2023-11-01T13:39:42.899Z,18.9
2023-11-01T13:45:50.123Z,19
2023-11-01T13:51:57.159Z,19
2023-11-01T13:58:04.545Z,19
2023-11-01T14:04:11.741Z,19
2023-11-01T14:10:16.982Z,19
2023-11-01T14:16:22.782Z,18.9
2023-11-01T14:22:28.267Z,19
2023-11-01T14:28:33.524Z,19
2023-11-01T14:34:38.809Z,18.9
2023-11-01T14:40:44.021Z,18.9
2023-11-01T14:46:49.963Z,18.9
2023-11-01T14:52:55.937Z,18.9
2023-11-01T14:59:02.569Z,18.9
2023-11-01T15:05:07.581Z,18.9
2023-11-01T15:11:13.279Z,18.9
2023-11-01T15:17:18.484Z,18.9
2023-11-01T15:23:24.062Z,18.9
2023-11-01T15:29:29.393Z,18.9
2023-11-01T15:35:34.425Z,18.9
2023-11-01T15:41:40.152Z,18.9
2023-11-01T15:47:45.808Z,18.8
2023-11-01T15:53:51.908Z,18.8
2023-11-01T15:59:57.554Z,18.8
2023-11-01T16:06:03.115Z,18.8
2023-11-01T16:12:08.629Z,18.8
2023-11-01T16:18:14.314Z,18.8
2023-11-01T16:24:20.412Z,18.8
2023-11-01T16:30:25.606Z,18.8
2023-11-01T16:36:31.714Z,18.8
2023-11-01T16:42:36.733Z,18.8
2023-11-01T16:48:42.717Z,18.8
2023-11-01T16:54:48.089Z,18.8
2023-11-01T17:00:53.447Z,18.8
2023-11-01T17:06:58.814Z,18.8
2023-11-01T17:13:03.385Z,18.8
2023-11-01T17:19:09.318Z,18.8
2023-11-01T17:25:14.543Z,18.8
2023-11-01T17:31:20.284Z,18.8
2023-11-01T17:37:25.859Z,18.8
2023-11-01T17:43:31.251Z,18.7
2023-11-01T17:49:36.337Z,18.7
2023-11-01T17:55:42.518Z,18.7
2023-11-01T18:01:47.657Z,18.7
2023-11-01T18:07:53.668Z,18.7
2023-11-01T18:14:00.134Z,18.7
2023-11-01T18:20:05.815Z,18.7
2023-11-01T18:26:10.501Z,18.7
2023-11-01T18:32:16.395Z,18.7
2023-11-01T18:38:22.265Z,18.7
2023-11-01T18:44:29.895Z,18.7
2023-11-01T18:50:43.097Z,18.7
2023-11-01T18:56:48.482Z,18.7
2023-11-01T19:02:53.605Z,18.7
2023-11-01T19:08:58.957Z,18.7
2023-11-01T19:15:05.362Z,18.7
2023-11-01T19:21:13.259Z,18.6
2023-11-01T19:27:23.756Z,18.6
2023-11-01T19:33:31.985Z,18.6
2023-11-01T19:39:39.321Z,18.6
2023-11-01T19:45:47.337Z,18.6
2023-11-01T19:51:55.167Z,18.6
2023-11-01T19:58:00.960Z,18.5
2023-11-01T20:04:07.966Z,18.6
2023-11-01T20:10:15.246Z,18.5
2023-11-01T20:16:21.807Z,18.5
2023-11-01T20:22:33.935Z,18.5
2023-11-01T20:28:39.056Z,18.5
2023-11-01T20:34:44.645Z,18.5
2023-11-01T20:40:49.870Z,18.5
2023-11-01T20:46:55.155Z,18.5
2023-11-01T20:53:00.524Z,18.5
2023-11-01T20:59:05.773Z,18.5
2023-11-01T21:05:11.724Z,18.5
2023-11-01T21:11:17.459Z,18.5
2023-11-01T21:17:22.901Z,18.5
2023-11-01T21:23:28.266Z,18.5
2023-11-01T21:29:33.400Z,18.5
2023-11-01T21:35:38.640Z,18.4
2023-11-01T21:41:44.327Z,18.4
2023-11-01T21:47:49.755Z,18.4
2023-11-01T21:53:54.930Z,18.4
2023-11-01T22:00:00.539Z,18.4
2023-11-01T22:06:06.470Z,18.4
2023-11-01T22:12:11.643Z,18.4
2023-11-01T22:18:18.035Z,18.4
2023-11-01T22:24:23.193Z,18.4
2023-11-01T22:30:28.661Z,18.4
2023-11-01T22:36:34.311Z,18.3
2023-11-01T22:42:39.865Z,18.3
2023-11-01T22:48:45.714Z,18.3
2023-11-01T22:54:52.007Z,18.3
2023-11-01T23:00:57.592Z,18.3
2023-11-01T23:07:02.589Z,18.3
2023-11-01T23:13:08.497Z,18.3
2023-11-01T23:19:13.906Z,18.3
2023-11-01T23:25:19.647Z,18.2
2023-11-01T23:31:25.080Z,18.2
2023-11-01T23:37:30.808Z,18.2
2023-11-01T23:43:36.384Z,18.2
2023-11-01T23:49:42.381Z,18.2
2023-11-01T23:55:48.140Z,18.2
